Time;durP1;ratioP1;P1;durP2;ratioP2;P2;SDS_P1;SDS_P2;PMS_P1;PMS_P2;Temp;Humidity;BMP_temperature;BMP_pressure;BME280_temperature;BME280_humidity;BME280_pressure;Samples;Min_cycle;Max_cycle;Signal;HPM_P1;HPM_P2
2021/04/10 00:00:38;;;;;;;;;;;18.10;48.20;;;;;;5024410;28;20297;-68
2021/04/10 00:03:07;;;;;;;;;;;18.10;48.20;;;;;;5025081;28;19917;-68
2021/04/10 00:05:32;;;;;;;;;;;18.10;48.80;;;;;;5024269;28;19921;-68
2021/04/10 00:07:58;;;;;;;;;;;18.10;48.20;;;;;;5025291;28;19925;-68
2021/04/10 00:10:23;;;;;;;;;;;18.10;48.10;;;;;;5021999;28;19959;-68
2021/04/10 00:12:49;;;;;;;;;;;18.10;48.10;;;;;;5023756;28;19921;-68
2021/04/10 00:15:15;;;;;;;;;;;18.10;48.10;;;;;;5025008;28;19917;-69
2021/04/10 00:17:41;;;;;;;;;;;18.10;48.10;;;;;;5025793;28;19952;-68
2021/04/10 00:20:07;;;;;;;;;;;18.10;48.10;;;;;;5028417;28;20272;-68
2021/04/10 00:22:32;;;;;;;;;;;18.10;48.10;;;;;;5027073;28;20349;-68
2021/04/10 00:24:58;;;;;;;;;;;18.00;48.00;;;;;;5023009;28;19925;-69
2021/04/10 00:27:23;;;;;;;;;;;18.10;48.10;;;;;;5024144;28;19943;-68
2021/04/10 00:29:49;;;;;;;;;;;18.10;48.00;;;;;;5023968;28;19943;-68
2021/04/10 00:32:14;;;;;;;;;;;18.10;48.10;;;;;;5024024;28;19921;-68
2021/04/10 00:34:39;;;;;;;;;;;18.10;48.10;;;;;;5023927;28;20598;-68
2021/04/10 00:37:05;;;;;;;;;;;18.10;48.10;;;;;;5024186;28;19943;-68
2021/04/10 00:39:30;;;;;;;;;;;18.10;48.00;;;;;;5023132;28;20031;-69
2021/04/10 00:41:56;;;;;;;;;;;18.10;48.00;;;;;;5023885;28;19918;-67
2021/04/10 00:44:21;;;;;;;;;;;18.10;48.00;;;;;;5006239;28;19968;-68
2021/04/10 00:46:47;;;;;;;;;;;18.10;48.00;;;;;;5023676;28;19921;-68
2021/04/10 00:49:12;;;;;;;;;;;18.10;48.00;;;;;;5023768;28;19924;-68
2021/04/10 00:51:38;;;;;;;;;;;18.10;48.00;;;;;;5024666;28;19923;-67
2021/04/10 00:54:03;;;;;;;;;;;18.10;48.00;;;;;;5023594;28;20439;-67
2021/04/10 00:56:29;;;;;;;;;;;18.10;48.00;;;;;;5006591;28;19925;-68
2021/04/10 00:58:54;;;;;;;;;;;18.10;48.00;;;;;;5025968;28;20279;-68
2021/04/10 01:01:19;;;;;;;;;;;18.10;48.00;;;;;;5007887;28;19923;-69
2021/04/10 01:03:45;;;;;;;;;;;18.10;48.00;;;;;;5009492;28;19921;-69
2021/04/10 01:06:11;;;;;;;;;;;18.10;48.00;;;;;;5026548;28;19917;-69
2021/04/10 01:08:36;;;;;;;;;;;18.10;48.00;;;;;;5024414;28;20511;-68
2021/04/10 01:11:04;;;;;;;;;;;18.10;48.00;;;;;;5023976;28;19917;-69
2021/04/10 01:13:47;;;;;;;;;;;18.10;48.00;;;;;;4989212;28;19929;-68
2021/04/10 01:16:13;;;;;;;;;;;18.10;48.00;;;;;;5023284;28;19971;-68
2021/04/10 01:18:57;;;;;;;;;;;18.10;48.50;;;;;;5023238;28;19925;-69
2021/04/10 01:21:22;;;;;;;;;;;18.10;47.90;;;;;;5022801;28;19925;-68
2021/04/10 01:24:06;;;;;;;;;;;18.10;47.90;;;;;;5023770;28;19918;-68
2021/04/10 01:26:34;;;;;;;;;;;18.10;47.90;;;;;;5021735;28;20283;-68
2021/04/10 01:29:02;;;;;;;;;;;18.10;47.90;;;;;;5005617;28;19986;-68
2021/04/10 01:31:32;;;;;;;;;;;18.10;47.90;;;;;;5023474;28;19917;-68
2021/04/10 01:34:01;;;;;;;;;;;18.10;47.90;;;;;;5023228;28;19917;-66
2021/04/10 01:36:28;;;;;;;;;;;18.10;47.90;;;;;;5025210;28;19924;-69
2021/04/10 01:38:54;;;;;;;;;;;18.10;47.90;;;;;;5027175;28;20011;-69
2021/04/10 01:41:19;;;;;;;;;;;18.10;47.90;;;;;;5009000;28;19928;-69
2021/04/10 01:43:45;;;;;;;;;;;18.10;47.90;;;;;;5009557;28;19945;-66
2021/04/10 01:46:10;;;;;;;;;;;18.10;47.90;;;;;;5026943;28;19924;-69
2021/04/10 01:48:36;;;;;;;;;;;18.10;47.80;;;;;;5009809;28;19924;-69
2021/04/10 01:51:01;;;;;;;;;;;18.10;47.80;;;;;;5026862;28;19917;-67
2021/04/10 01:53:27;;;;;;;;;;;18.10;47.80;;;;;;5008881;28;19949;-69
2021/04/10 01:55:52;;;;;;;;;;;18.10;47.90;;;;;;5021822;28;20291;-66
2021/04/10 01:58:18;;;;;;;;;;;18.10;47.80;;;;;;5017836;28;20019;-68
2021/04/10 02:00:44;;;;;;;;;;;18.10;47.80;;;;;;5026590;28;20194;-67
2021/04/10 02:03:09;;;;;;;;;;;18.10;47.80;;;;;;5026697;28;20006;-67
2021/04/10 02:05:35;;;;;;;;;;;18.10;47.80;;;;;;5026975;28;19988;-69
2021/04/10 02:08:00;;;;;;;;;;;18.10;47.80;;;;;;5009110;28;20083;-69
2021/04/10 02:10:26;;;;;;;;;;;18.10;47.80;;;;;;5008539;28;20296;-66
2021/04/10 02:12:52;;;;;;;;;;;18.10;47.80;;;;;;5020916;28;19921;-69
2021/04/10 02:15:18;;;;;;;;;;;18.10;47.80;;;;;;5031058;28;19976;-69
2021/04/10 02:17:43;;;;;;;;;;;18.10;47.80;;;;;;5008396;28;19929;-69
2021/04/10 02:20:12;;;;;;;;;;;18.10;47.90;;;;;;5008655;28;19924;-68
2021/04/10 02:22:43;;;;;;;;;;;18.10;47.90;;;;;;5021294;28;19971;-68
2021/04/10 02:25:09;;;;;;;;;;;18.10;47.90;;;;;;5026321;28;19923;-68
2021/04/10 02:27:34;;;;;;;;;;;18.10;47.90;;;;;;5025316;28;19917;-68
2021/04/10 02:29:59;;;;;;;;;;;18.10;47.80;;;;;;5026043;28;19983;-68
2021/04/10 02:32:43;;;;;;;;;;;18.10;47.90;;;;;;5008238;28;19917;-68
2021/04/10 02:35:11;;;;;;;;;;;18.10;47.80;;;;;;5026329;28;19939;-69
2021/04/10 02:37:36;;;;;;;;;;;18.10;47.90;;;;;;5019860;28;20984;-68
2021/04/10 02:40:05;;;;;;;;;;;18.10;47.90;;;;;;5007813;28;19917;-69
2021/04/10 02:42:30;;;;;;;;;;;18.10;47.90;;;;;;5026068;28;20063;-68
2021/04/10 02:44:55;;;;;;;;;;;18.10;47.90;;;;;;5007915;28;21769;-69
2021/04/10 02:47:22;;;;;;;;;;;18.10;47.80;;;;;;5007720;28;19917;-68
2021/04/10 02:49:49;;;;;;;;;;;18.10;47.90;;;;;;5007640;28;19963;-68
2021/04/10 02:52:14;;;;;;;;;;;18.10;47.80;;;;;;5008136;28;20384;-69
2021/04/10 02:54:46;;;;;;;;;;;18.10;47.80;;;;;;5007872;28;19960;-68
2021/04/10 02:57:12;;;;;;;;;;;18.10;47.80;;;;;;5025327;28;19979;-68
2021/04/10 02:59:41;;;;;;;;;;;18.10;47.80;;;;;;5008488;28;19925;-68
2021/04/10 03:02:06;;;;;;;;;;;18.10;47.80;;;;;;5008202;28;19975;-68
2021/04/10 03:04:32;;;;;;;;;;;18.10;47.80;;;;;;5008006;28;19925;-67
2021/04/10 03:06:57;;;;;;;;;;;18.10;47.80;;;;;;5008259;28;19917;-69
2021/04/10 03:09:23;;;;;;;;;;;18.10;47.80;;;;;;5007771;28;20534;-69
2021/04/10 03:11:48;;;;;;;;;;;18.10;47.80;;;;;;5008133;28;19922;-68
2021/04/10 03:14:14;;;;;;;;;;;18.10;47.80;;;;;;5007041;28;19927;-68
2021/04/10 03:16:39;;;;;;;;;;;18.10;47.80;;;;;;5007327;28;20432;-68
2021/04/10 03:19:05;;;;;;;;;;;18.10;47.70;;;;;;5008269;28;19971;-66
2021/04/10 03:21:30;;;;;;;;;;;18.10;47.80;;;;;;5014872;28;19924;-67
2021/04/10 03:23:56;;;;;;;;;;;18.10;47.70;;;;;;5025520;28;19925;-66
2021/04/10 03:26:21;;;;;;;;;;;18.10;47.70;;;;;;5026167;28;19917;-67
2021/04/10 03:28:47;;;;;;;;;;;18.10;47.70;;;;;;5007851;28;20003;-67
2021/04/10 03:31:12;;;;;;;;;;;18.10;47.80;;;;;;5007593;28;19995;-68
2021/04/10 03:33:37;;;;;;;;;;;18.10;47.70;;;;;;5026688;28;19924;-68
2021/04/10 03:36:04;;;;;;;;;;;18.10;47.80;;;;;;5008212;28;19917;-68
2021/04/10 03:38:29;;;;;;;;;;;18.10;47.70;;;;;;5009617;28;20881;-68
2021/04/10 03:40:55;;;;;;;;;;;18.10;47.70;;;;;;5010296;28;19921;-68
2021/04/10 03:43:20;;;;;;;;;;;18.10;47.70;;;;;;5030354;28;20193;-69
2021/04/10 03:45:46;;;;;;;;;;;18.10;47.70;;;;;;5025316;28;19936;-68
2021/04/10 03:48:12;;;;;;;;;;;18.10;47.70;;;;;;5025286;28;19925;-69
2021/04/10 03:50:38;;;;;;;;;;;18.10;47.70;;;;;;5025303;28;19917;-69
2021/04/10 03:53:03;;;;;;;;;;;18.10;47.90;;;;;;5025255;28;19917;-68
2021/04/10 03:55:29;;;;;;;;;;;18.10;47.70;;;;;;5024992;28;22641;-68
2021/04/10 03:57:54;;;;;;;;;;;18.10;47.70;;;;;;5025064;28;19925;-68
2021/04/10 04:00:20;;;;;;;;;;;18.10;47.80;;;;;;5024012;28;20315;-68
2021/04/10 04:02:45;;;;;;;;;;;18.10;47.80;;;;;;5024779;28;19921;-68
2021/04/10 04:05:11;;;;;;;;;;;18.10;47.70;;;;;;5025017;28;19995;-68
2021/04/10 04:07:37;;;;;;;;;;;18.10;47.80;;;;;;5008326;28;19924;-68
2021/04/10 04:10:02;;;;;;;;;;;18.10;47.80;;;;;;5025647;28;19917;-68
2021/04/10 04:12:28;;;;;;;;;;;18.10;47.70;;;;;;5024427;28;20063;-69
2021/04/10 04:14:53;;;;;;;;;;;18.10;47.80;;;;;;5024934;28;20429;-68
2021/04/10 04:17:19;;;;;;;;;;;18.10;47.70;;;;;;5026657;28;19925;-68
2021/04/10 04:19:44;;;;;;;;;;;18.10;47.70;;;;;;5027090;28;19921;-69
2021/04/10 04:22:10;;;;;;;;;;;18.10;47.70;;;;;;5025655;28;19936;-68
2021/04/10 04:24:35;;;;;;;;;;;18.10;47.80;;;;;;5028599;28;20314;-68
2021/04/10 04:27:00;;;;;;;;;;;18.00;47.70;;;;;;5029090;28;20038;-68
2021/04/10 04:29:26;;;;;;;;;;;18.10;47.80;;;;;;5026162;28;19917;-68
2021/04/10 04:31:51;;;;;;;;;;;18.10;47.80;;;;;;5024583;28;19971;-68
2021/04/10 04:34:17;;;;;;;;;;;18.10;47.70;;;;;;5024414;28;19917;-68
2021/04/10 04:36:42;;;;;;;;;;;18.10;47.70;;;;;;5023533;28;20376;-68
2021/04/10 04:39:08;;;;;;;;;;;18.10;47.80;;;;;;5024463;28;20042;-69
2021/04/10 04:41:33;;;;;;;;;;;18.10;47.70;;;;;;5023645;28;19924;-69
2021/04/10 04:43:59;;;;;;;;;;;18.10;47.60;;;;;;5024095;28;19917;-68
2021/04/10 04:46:24;;;;;;;;;;;18.00;47.60;;;;;;5024039;28;20459;-67
2021/04/10 04:48:49;;;;;;;;;;;18.00;47.60;;;;;;5024731;28;19928;-68
2021/04/10 04:51:18;;;;;;;;;;;18.10;47.70;;;;;;5023356;28;19924;-68
2021/04/10 04:53:43;;;;;;;;;;;18.10;47.70;;;;;;5024519;28;19917;-69
2021/04/10 04:56:09;;;;;;;;;;;18.10;47.60;;;;;;5023982;28;19970;-68
2021/04/10 04:58:34;;;;;;;;;;;18.10;47.60;;;;;;5024028;28;20483;-69
2021/04/10 05:01:00;;;;;;;;;;;18.00;47.60;;;;;;5023260;28;19925;-68
2021/04/10 05:03:25;;;;;;;;;;;18.10;47.70;;;;;;5024191;28;19918;-68
2021/04/10 05:05:51;;;;;;;;;;;18.10;47.70;;;;;;5023007;28;20563;-68
2021/04/10 05:08:16;;;;;;;;;;;18.10;47.70;;;;;;5023756;28;19917;-68
2021/04/10 05:10:42;;;;;;;;;;;18.00;47.60;;;;;;5022516;28;19921;-68
2021/04/10 05:13:07;;;;;;;;;;;18.10;47.70;;;;;;5023904;28;19933;-69
2021/04/10 05:15:32;;;;;;;;;;;18.10;47.70;;;;;;5024475;28;19924;-68
2021/04/10 05:17:58;;;;;;;;;;;18.00;47.70;;;;;;5026249;28;19917;-68
2021/04/10 05:20:23;;;;;;;;;;;18.00;47.70;;;;;;5026488;28;20391;-68
2021/04/10 05:22:52;;;;;;;;;;;18.00;47.70;;;;;;5028075;28;19923;-69
2021/04/10 05:25:18;;;;;;;;;;;18.00;47.70;;;;;;5005720;28;19957;-69
2021/04/10 05:27:43;;;;;;;;;;;18.00;47.70;;;;;;5023331;28;19965;-69
2021/04/10 05:30:09;;;;;;;;;;;18.00;47.70;;;;;;5023350;28;20531;-68
2021/04/10 05:32:34;;;;;;;;;;;18.00;47.70;;;;;;5023367;28;19917;-68
2021/04/10 05:35:00;;;;;;;;;;;18.00;47.70;;;;;;5023492;28;19948;-69
2021/04/10 05:37:25;;;;;;;;;;;18.00;47.80;;;;;;5015911;28;19954;-68
2021/04/10 05:39:51;;;;;;;;;;;18.00;47.80;;;;;;5023317;28;19918;-67
2021/04/10 05:42:17;;;;;;;;;;;18.00;47.80;;;;;;5023492;28;19983;-68
2021/04/10 05:44:42;;;;;;;;;;;18.00;47.80;;;;;;5022772;28;19917;-67
2021/04/10 05:47:07;;;;;;;;;;;18.10;47.80;;;;;;5023873;28;19949;-68
2021/04/10 05:49:33;;;;;;;;;;;18.00;47.80;;;;;;5005060;28;19917;-68
2021/04/10 05:51:58;;;;;;;;;;;18.00;47.80;;;;;;5023388;28;20565;-68
2021/04/10 05:54:24;;;;;;;;;;;18.00;47.80;;;;;;5024449;28;19968;-68
2021/04/10 05:56:49;;;;;;;;;;;18.00;47.80;;;;;;5021611;28;20294;-68
2021/04/10 05:59:15;;;;;;;;;;;18.00;47.80;;;;;;5022613;28;19924;-68
2021/04/10 06:01:40;;;;;;;;;;;18.00;47.80;;;;;;5023791;28;19932;-69
2021/04/10 06:04:06;;;;;;;;;;;18.10;47.90;;;;;;5022887;28;20424;-68
2021/04/10 06:06:31;;;;;;;;;;;18.00;47.80;;;;;;5022504;28;19964;-68
2021/04/10 06:08:57;;;;;;;;;;;18.00;47.90;;;;;;5023314;28;19996;-68
2021/04/10 06:11:22;;;;;;;;;;;18.00;47.90;;;;;;5022738;28;19924;-69
2021/04/10 06:13:48;;;;;;;;;;;18.00;47.80;;;;;;5024776;28;20399;-69
2021/04/10 06:16:13;;;;;;;;;;;18.00;47.90;;;;;;5024916;28;19917;-68
2021/04/10 06:18:39;;;;;;;;;;;18.00;47.90;;;;;;5026366;28;20496;-67
2021/04/10 06:21:04;;;;;;;;;;;18.10;47.90;;;;;;5027255;28;19924;-69
2021/04/10 06:23:30;;;;;;;;;;;18.00;47.90;;;;;;5025168;28;19917;-68
2021/04/10 06:25:55;;;;;;;;;;;18.00;47.90;;;;;;5026004;28;19917;-67
2021/04/10 06:28:21;;;;;;;;;;;18.00;47.90;;;;;;5008740;28;19966;-67
2021/04/10 06:30:46;;;;;;;;;;;18.00;47.90;;;;;;5025384;28;19917;-67
2021/04/10 06:33:11;;;;;;;;;;;18.00;47.90;;;;;;5026755;28;19918;-66
2021/04/10 06:35:37;;;;;;;;;;;18.00;47.90;;;;;;5026592;28;19920;-68
2021/04/10 06:38:02;;;;;;;;;;;18.00;47.90;;;;;;5026267;28;19927;-68
2021/04/10 06:40:29;;;;;;;;;;;18.00;47.90;;;;;;5025956;28;20312;-67
2021/04/10 06:42:54;;;;;;;;;;;18.00;47.90;;;;;;5025966;28;19921;-67
2021/04/10 06:45:20;;;;;;;;;;;18.00;47.90;;;;;;5026044;28;19921;-67
2021/04/10 06:47:45;;;;;;;;;;;18.10;48.00;;;;;;5026305;28;19964;-67
2021/04/10 06:50:11;;;;;;;;;;;18.00;47.90;;;;;;5007734;28;19925;-67
2021/04/10 06:52:37;;;;;;;;;;;18.00;47.90;;;;;;5026431;28;19917;-66
2021/04/10 06:55:04;;;;;;;;;;;18.00;47.90;;;;;;5026511;28;20350;-66
2021/04/10 06:57:33;;;;;;;;;;;18.10;47.90;;;;;;5024596;28;19928;-66
2021/04/10 07:00:05;;;;;;;;;;;18.10;47.90;;;;;;5025151;28;20597;-70
2021/04/10 07:02:31;;;;;;;;;;;18.10;47.90;;;;;;4999963;28;19953;-69
2021/04/10 07:04:56;;;;;;;;;;;18.10;48.00;;;;;;5025775;28;19967;-66
2021/04/10 07:07:22;;;;;;;;;;;18.10;48.10;;;;;;5025785;28;20001;-68
2021/04/10 07:09:48;;;;;;;;;;;18.10;48.20;;;;;;5025672;28;19987;-67
2021/04/10 07:12:13;;;;;;;;;;;18.00;48.30;;;;;;5025583;28;19917;-68
2021/04/10 07:14:39;;;;;;;;;;;18.00;48.60;;;;;;5026348;28;19921;-68
2021/04/10 07:17:04;;;;;;;;;;;18.00;49.00;;;;;;5024819;28;20398;-69
2021/04/10 07:19:30;;;;;;;;;;;17.90;49.40;;;;;;5025145;28;19932;-68
2021/04/10 07:22:03;;;;;;;;;;;17.90;49.90;;;;;;5025544;28;19917;-68
2021/04/10 07:24:34;;;;;;;;;;;17.90;50.20;;;;;;5007948;28;19925;-68
2021/04/10 07:27:00;;;;;;;;;;;17.90;50.40;;;;;;5023529;28;19918;-68
2021/04/10 07:29:29;;;;;;;;;;;17.90;50.60;;;;;;5028619;28;19923;-67
2021/04/10 07:31:54;;;;;;;;;;;17.90;50.70;;;;;;5029265;28;19944;-65
2021/04/10 07:34:21;;;;;;;;;;;17.90;50.70;;;;;;5031640;28;20387;-68
2021/04/10 07:36:56;;;;;;;;;;;17.90;50.80;;;;;;5031331;28;19921;-66
2021/04/10 07:39:22;;;;;;;;;;;17.90;50.90;;;;;;5032450;28;19928;-67
2021/04/10 07:42:02;;;;;;;;;;;17.90;50.90;;;;;;5034072;28;19921;-67
2021/04/10 07:44:37;;;;;;;;;;;18.00;50.90;;;;;;5030053;28;20012;-69
2021/04/10 07:47:03;;;;;;;;;;;17.90;50.80;;;;;;5025567;28;20338;-69
2021/04/10 07:49:29;;;;;;;;;;;17.90;50.50;;;;;;5025179;28;19939;-68
2021/04/10 07:51:55;;;;;;;;;;;17.90;50.50;;;;;;5025120;28;19929;-68
2021/04/10 07:54:22;;;;;;;;;;;18.00;50.40;;;;;;5025487;28;19925;-68
2021/04/10 07:56:54;;;;;;;;;;;18.00;50.20;;;;;;5024668;28;19925;-66
2021/04/10 07:59:19;;;;;;;;;;;17.90;50.20;;;;;;5020777;28;20375;-65
2021/04/10 08:01:45;;;;;;;;;;;18.00;50.10;;;;;;5024685;28;19927;-69
2021/04/10 08:04:13;;;;;;;;;;;18.00;50.00;;;;;;5025577;28;20272;-67
2021/04/10 08:06:51;;;;;;;;;;;18.00;49.90;;;;;;5023833;28;19924;-69
2021/04/10 08:09:25;;;;;;;;;;;18.00;49.80;;;;;;5024515;28;19921;-67
2021/04/10 08:11:51;;;;;;;;;;;18.00;49.70;;;;;;5023996;28;19921;-65
2021/04/10 08:14:16;;;;;;;;;;;18.00;49.50;;;;;;5024255;28;19953;-66
2021/04/10 08:16:42;;;;;;;;;;;18.00;49.50;;;;;;5024558;28;19937;-69
2021/04/10 08:19:08;;;;;;;;;;;18.00;49.40;;;;;;5006845;28;19931;-68
2021/04/10 08:21:33;;;;;;;;;;;18.00;49.30;;;;;;5023649;28;19917;-66
2021/04/10 08:23:59;;;;;;;;;;;18.10;49.30;;;;;;5023625;28;20388;-67
2021/04/10 08:26:24;;;;;;;;;;;18.10;49.10;;;;;;5005593;28;19925;-66
2021/04/10 08:28:50;;;;;;;;;;;18.10;49.10;;;;;;5006365;28;19924;-66
2021/04/10 08:31:15;;;;;;;;;;;18.10;48.90;;;;;;5023725;28;20567;-67
2021/04/10 08:33:41;;;;;;;;;;;18.10;48.90;;;;;;5024144;28;19921;-65
2021/04/10 08:36:07;;;;;;;;;;;18.10;48.80;;;;;;5006641;28;19979;-68
2021/04/10 08:38:33;;;;;;;;;;;18.10;48.80;;;;;;5024388;28;20016;-68
2021/04/10 08:40:59;;;;;;;;;;;18.10;48.80;;;;;;5023963;28;19924;-68
2021/04/10 08:43:27;;;;;;;;;;;18.10;49.10;;;;;;5023083;28;20523;-68
2021/04/10 08:45:53;;;;;;;;;;;18.10;49.70;;;;;;5024784;28;19925;-68
2021/04/10 08:48:22;;;;;;;;;;;18.10;50.10;;;;;;5025829;28;19921;-68
2021/04/10 08:50:49;;;;;;;;;;;18.10;50.40;;;;;;5007997;28;19918;-66
2021/04/10 08:53:15;;;;;;;;;;;18.10;50.50;;;;;;5008496;28;20366;-69
2021/04/10 08:55:41;;;;;;;;;;;18.10;50.70;;;;;;5009694;28;19922;-68
2021/04/10 08:58:19;;;;;;;;;;;18.10;50.70;;;;;;5027634;28;20411;-68
2021/04/10 09:00:45;;;;;;;;;;;18.10;50.90;;;;;;5021439;28;19928;-68
2021/04/10 09:03:10;;;;;;;;;;;18.10;51.20;;;;;;5007144;28;19917;-67
2021/04/10 09:05:46;;;;;;;;;;;18.20;51.50;;;;;;5023719;28;19928;-67
2021/04/10 09:08:24;;;;;;;;;;;18.10;51.80;;;;;;5024313;28;20514;-68
2021/04/10 09:10:50;;;;;;;;;;;18.20;52.10;;;;;;5022825;28;19925;-66
2021/04/10 09:13:15;;;;;;;;;;;18.10;52.00;;;;;;5024154;28;19970;-67
2021/04/10 09:15:41;;;;;;;;;;;18.10;52.00;;;;;;5024258;28;20019;-68
2021/04/10 09:18:06;;;;;;;;;;;18.20;51.90;;;;;;5023813;28;19929;-68
2021/04/10 09:20:44;;;;;;;;;;;18.10;52.00;;;;;;5023775;28;20006;-68
2021/04/10 09:23:22;;;;;;;;;;;18.20;52.00;;;;;;5024451;28;20392;-68
2021/04/10 09:26:06;;;;;;;;;;;18.20;51.90;;;;;;5023668;28;19925;-68
2021/04/10 09:28:35;;;;;;;;;;;18.20;51.90;;;;;;5024010;28;20759;-68
2021/04/10 09:31:01;;;;;;;;;;;18.20;51.80;;;;;;5023753;28;19917;-66
2021/04/10 09:33:29;;;;;;;;;;;18.20;51.80;;;;;;5006447;28;19917;-69
2021/04/10 09:35:55;;;;;;;;;;;18.20;51.70;;;;;;5005629;28;19948;-68
2021/04/10 09:38:39;;;;;;;;;;;18.20;51.80;;;;;;5023972;28;19932;-68
2021/04/10 09:41:05;;;;;;;;;;;18.20;52.10;;;;;;5015974;28;19918;-69
2021/04/10 09:43:30;;;;;;;;;;;18.10;52.40;;;;;;5024167;28;19917;-68
2021/04/10 09:45:56;;;;;;;;;;;18.00;52.80;;;;;;5024046;28;19917;-68
2021/04/10 09:48:22;;;;;;;;;;;18.00;53.20;;;;;;5022760;28;19917;-67
2021/04/10 09:50:50;;;;;;;;;;;18.00;53.30;;;;;;5023305;28;20688;-69
2021/04/10 09:53:19;;;;;;;;;;;18.00;53.70;;;;;;5020672;28;19935;-66
2021/04/10 09:55:56;;;;;;;;;;;18.00;53.80;;;;;;5024051;28;19952;-67
2021/04/10 09:58:23;;;;;;;;;;;18.10;53.80;;;;;;5029117;28;19921;-67
2021/04/10 10:00:48;;;;;;;;;;;18.10;53.90;;;;;;5025134;28;20419;-62
2021/04/10 10:03:14;;;;;;;;;;;18.10;53.80;;;;;;5020303;28;19940;-69
2021/04/10 10:05:43;;;;;;;;;;;18.10;53.80;;;;;;5028832;28;19955;-69
2021/04/10 10:08:08;;;;;;;;;;;18.10;53.90;;;;;;5025587;28;19918;-69
2021/04/10 10:10:37;;;;;;;;;;;18.20;53.90;;;;;;5019009;28;20380;-68
2021/04/10 10:13:06;;;;;;;;;;;18.10;53.70;;;;;;5020867;28;20619;-68
2021/04/10 10:15:32;;;;;;;;;;;18.20;53.80;;;;;;5020886;28;19924;-68
2021/04/10 10:17:57;;;;;;;;;;;18.10;53.70;;;;;;5022715;28;20015;-68
2021/04/10 10:20:23;;;;;;;;;;;18.20;53.80;;;;;;5020952;28;19925;-68
2021/04/10 10:22:48;;;;;;;;;;;18.20;53.80;;;;;;5009936;28;19917;-67
2021/04/10 10:25:14;;;;;;;;;;;18.20;53.70;;;;;;5020508;28;19925;-69
2021/04/10 10:27:40;;;;;;;;;;;18.20;53.50;;;;;;5026404;28;19917;-69
2021/04/10 10:30:13;;;;;;;;;;;18.30;53.80;;;;;;5030678;28;20368;-66
2021/04/10 10:32:38;;;;;;;;;;;18.30;53.60;;;;;;5031502;28;20035;-68
2021/04/10 10:35:05;;;;;;;;;;;18.30;53.10;;;;;;5031470;28;19947;-68
2021/04/10 10:37:31;;;;;;;;;;;18.30;53.40;;;;;;5029951;28;19925;-67
2021/04/10 10:39:56;;;;;;;;;;;18.30;53.00;;;;;;5012302;28;20398;-68
2021/04/10 10:42:22;;;;;;;;;;;18.30;52.50;;;;;;5028282;28;19918;-67
2021/04/10 10:44:47;;;;;;;;;;;18.40;52.40;;;;;;5021456;28;19921;-69
2021/04/10 10:47:13;;;;;;;;;;;18.40;53.00;;;;;;5030235;28;19924;-68
2021/04/10 10:49:38;;;;;;;;;;;18.30;52.60;;;;;;5028983;28;21794;-68
2021/04/10 10:52:04;;;;;;;;;;;18.40;52.50;;;;;;5028826;28;19917;-69
2021/04/10 10:54:38;;;;;;;;;;;18.40;52.80;;;;;;5029802;28;19917;-69
2021/04/10 10:57:06;;;;;;;;;;;18.40;52.40;;;;;;5028946;28;20376;-68
2021/04/10 10:59:32;;;;;;;;;;;18.40;52.90;;;;;;5027396;28;20304;-68
2021/04/10 11:01:57;;;;;;;;;;;18.40;52.70;;;;;;5027850;28;19917;-69
2021/04/10 11:04:26;;;;;;;;;;;18.40;52.80;;;;;;5029747;28;20330;-68
2021/04/10 11:06:52;;;;;;;;;;;18.40;52.50;;;;;;5028997;28;20300;-68
2021/04/10 11:09:18;;;;;;;;;;;18.40;52.60;;;;;;5018695;28;20346;-69
2021/04/10 11:11:44;;;;;;;;;;;18.40;52.20;;;;;;5010973;28;19921;-68
2021/04/10 11:14:10;;;;;;;;;;;18.40;52.50;;;;;;5026275;28;19921;-67
2021/04/10 11:16:45;;;;;;;;;;;18.50;52.20;;;;;;5009900;28;19921;-69
2021/04/10 11:19:10;;;;;;;;;;;18.40;52.20;;;;;;5028448;28;19967;-67
2021/04/10 11:21:36;;;;;;;;;;;18.50;52.30;;;;;;5027887;28;19983;-70
2021/04/10 11:24:05;;;;;;;;;;;18.50;52.30;;;;;;5027893;28;19924;-70
2021/04/10 11:26:38;;;;;;;;;;;18.50;52.20;;;;;;5027892;28;19956;-69
2021/04/10 11:29:22;;;;;;;;;;;18.50;52.30;;;;;;5028227;28;19932;-68
2021/04/10 11:32:06;;;;;;;;;;;18.50;52.30;;;;;;5027508;28;19924;-68
2021/04/10 11:34:35;;;;;;;;;;;18.50;52.20;;;;;;5028083;28;20299;-70
2021/04/10 11:37:02;;;;;;;;;;;18.50;52.10;;;;;;5027591;28;19924;-69
2021/04/10 11:39:27;;;;;;;;;;;18.50;51.90;;;;;;5028066;28;19917;-69
2021/04/10 11:41:53;;;;;;;;;;;18.50;51.80;;;;;;5009881;28;19924;-70
2021/04/10 11:44:19;;;;;;;;;;;18.60;51.60;;;;;;5027705;28;20398;-69
2021/04/10 11:46:44;;;;;;;;;;;18.60;51.50;;;;;;5026830;28;19944;-68
2021/04/10 11:49:21;;;;;;;;;;;18.60;51.30;;;;;;5027733;28;20395;-67
2021/04/10 11:51:47;;;;;;;;;;;18.60;51.20;;;;;;5007601;28;19983;-67
2021/04/10 11:54:29;;;;;;;;;;;18.60;51.10;;;;;;5011642;28;19925;-66
2021/04/10 11:56:54;;;;;;;;;;;18.60;51.10;;;;;;5010588;28;19921;-66
2021/04/10 11:59:29;;;;;;;;;;;18.60;50.90;;;;;;5010160;28;19944;-69
2021/04/10 12:01:58;;;;;;;;;;;18.60;50.80;;;;;;5028142;28;19947;-67
2021/04/10 12:04:24;;;;;;;;;;;18.60;50.70;;;;;;5010692;28;20003;-66
2021/04/10 12:06:49;;;;;;;;;;;18.60;50.60;;;;;;5027166;28;20004;-67
2021/04/10 12:09:15;;;;;;;;;;;18.70;50.70;;;;;;5024527;28;19933;-67
2021/04/10 12:11:40;;;;;;;;;;;18.60;50.50;;;;;;5008312;28;19921;-66
2021/04/10 12:14:13;;;;;;;;;;;18.60;50.50;;;;;;5025366;28;19929;-67
2021/04/10 12:16:38;;;;;;;;;;;18.70;50.30;;;;;;5026543;28;20393;-68
2021/04/10 12:19:04;;;;;;;;;;;18.70;50.30;;;;;;5027289;28;19929;-68
2021/04/10 12:21:30;;;;;;;;;;;18.70;50.30;;;;;;5026371;28;19924;-68
2021/04/10 12:23:55;;;;;;;;;;;18.70;50.30;;;;;;5027641;28;20283;-67
2021/04/10 12:26:20;;;;;;;;;;;18.70;50.10;;;;;;5027206;28;19917;-69
2021/04/10 12:28:46;;;;;;;;;;;18.70;50.10;;;;;;5027402;28;19925;-68
2021/04/10 12:31:11;;;;;;;;;;;18.70;50.00;;;;;;5027171;28;19966;-67
2021/04/10 12:33:38;;;;;;;;;;;18.70;50.00;;;;;;5027288;28;19917;-66
2021/04/10 12:36:04;;;;;;;;;;;18.70;49.90;;;;;;5009512;28;20289;-66
2021/04/10 12:38:29;;;;;;;;;;;18.70;49.80;;;;;;5008773;28;19982;-68
2021/04/10 12:40:54;;;;;;;;;;;18.70;49.80;;;;;;5026677;28;19921;-68
2021/04/10 12:43:20;;;;;;;;;;;18.70;49.80;;;;;;5023766;28;19917;-68
2021/04/10 12:45:45;;;;;;;;;;;18.70;50.20;;;;;;5026118;28;19921;-68
2021/04/10 12:48:11;;;;;;;;;;;18.70;50.30;;;;;;5026825;28;19921;-69
2021/04/10 12:50:36;;;;;;;;;;;18.70;50.50;;;;;;5026755;28;19924;-66
2021/04/10 12:53:02;;;;;;;;;;;18.70;50.60;;;;;;5026881;28;20280;-67
2021/04/10 12:55:27;;;;;;;;;;;18.70;50.70;;;;;;5027503;28;19949;-67
2021/04/10 12:57:53;;;;;;;;;;;18.70;51.80;;;;;;5027592;28;19921;-67
2021/04/10 13:00:18;;;;;;;;;;;18.70;52.00;;;;;;5025664;28;20445;-66
2021/04/10 13:02:44;;;;;;;;;;;18.70;52.60;;;;;;5024668;28;19917;-66
2021/04/10 13:05:10;;;;;;;;;;;18.70;53.00;;;;;;5006595;28;19917;-65
2021/04/10 13:07:35;;;;;;;;;;;18.60;53.40;;;;;;5024537;28;19917;-66
2021/04/10 13:10:01;;;;;;;;;;;18.60;53.80;;;;;;5006850;28;19961;-66
2021/04/10 13:12:27;;;;;;;;;;;18.50;54.00;;;;;;5024505;28;19929;-66
2021/04/10 13:14:54;;;;;;;;;;;18.50;54.40;;;;;;5024102;28;19917;-66
2021/04/10 13:17:19;;;;;;;;;;;18.50;54.70;;;;;;5024071;28;20411;-65
2021/04/10 13:19:45;;;;;;;;;;;18.50;54.80;;;;;;5024570;28;19925;-66
2021/04/10 13:22:10;;;;;;;;;;;18.50;54.80;;;;;;5023505;28;19932;-67
2021/04/10 13:24:36;;;;;;;;;;;18.50;54.70;;;;;;5024028;28;20375;-67
2021/04/10 13:27:01;;;;;;;;;;;18.50;54.40;;;;;;5005794;28;19948;-66
2021/04/10 13:29:27;;;;;;;;;;;18.50;54.40;;;;;;5005708;28;19921;-66
2021/04/10 13:31:52;;;;;;;;;;;18.50;54.20;;;;;;5023842;28;19917;-67
2021/04/10 13:34:18;;;;;;;;;;;18.60;54.10;;;;;;5027601;28;20379;-68
2021/04/10 13:36:43;;;;;;;;;;;18.50;54.00;;;;;;5026965;28;19917;-66
2021/04/10 13:39:09;;;;;;;;;;;18.60;54.00;;;;;;5027122;28;19928;-66
2021/04/10 13:41:35;;;;;;;;;;;18.60;53.60;;;;;;5026882;28;19986;-66
2021/04/10 13:44:01;;;;;;;;;;;18.60;53.50;;;;;;5027185;28;19918;-66
2021/04/10 13:46:26;;;;;;;;;;;18.60;53.40;;;;;;5027053;28;19944;-65
2021/04/10 13:48:52;;;;;;;;;;;18.60;53.30;;;;;;5027448;28;19952;-65
2021/04/10 13:51:17;;;;;;;;;;;18.70;53.20;;;;;;5027056;28;19917;-66
2021/04/10 13:53:43;;;;;;;;;;;18.70;53.20;;;;;;5009076;28;19929;-66
2021/04/10 13:56:09;;;;;;;;;;;18.70;53.30;;;;;;5008998;28;20026;-67
2021/04/10 13:58:34;;;;;;;;;;;18.70;53.30;;;;;;5026781;28;19971;-66
2021/04/10 14:01:00;;;;;;;;;;;18.70;53.30;;;;;;5008782;28;20544;-66
2021/04/10 14:03:25;;;;;;;;;;;18.60;53.20;;;;;;5009417;28;19917;-67
2021/04/10 14:05:51;;;;;;;;;;;18.70;53.30;;;;;;5026790;28;19935;-66
2021/04/10 14:08:20;;;;;;;;;;;18.60;52.90;;;;;;5009529;28;20407;-67
2021/04/10 14:10:45;;;;;;;;;;;18.70;53.00;;;;;;5028071;28;20323;-66
2021/04/10 14:13:11;;;;;;;;;;;18.70;52.80;;;;;;5008625;28;19921;-66